METAR Data
IDs: Format: Raw Decoded Include TAF

Data at: 0718 UTC 07 Dec 2022

KLGD 070656Z AUTO 17018KT 10SM CLR M03/M04 A3015 RMK AO2 SLP237 T10281039 FZRANO
KLGD 070556Z AUTO 19018G22KT 10SM CLR M03/M04 A3014 RMK AO2 SLP233 T10281044 11022 21028 51012 FZRANO
KLGD 070456Z AUTO 18019KT 10SM CLR M02/M04 A3013 RMK AO2 SLP230 T10221044 FZRANO
KLGD 070356Z AUTO 19018G24KT 10SM CLR M02/M04 A3011 RMK AO2 SLP226 T10221044 FZRANO
KLGD 070256Z AUTO 19018KT 10SM CLR M03/M04 A3010 RMK AO2 SLP223 T10281044 51013 FZRANO
KLGD 070156Z AUTO 20018KT 10SM CLR M03/M04 A3009 RMK AO2 SLP220 T10281044 FZRANO
KLGD 070056Z AUTO 18018G21KT 10SM CLR M03/M05 A3008 RMK AO2 SLP214 T10281050 FZRANO
KLGD 062356Z AUTO 18017KT 10SM CLR M03/M05 A3006 RMK AO2 PK WND 18027/2257 SLP208 T10281050 10006 21028 53006 FZRANO
KLGD 062256Z AUTO 19021KT 10SM CLR M02/M04 A3004 RMK AO2 PK WND 19028/2221 SLP200 T10171044 FZRANO
KLGD 062156Z AUTO 19017G21KT 10SM CLR M01/M04 A3004 RMK AO2 SLP198 T10061044 FZRANO
KLGD 062056Z AUTO 19018G22KT 10SM CLR M01/M04 A3004 RMK AO2 SLP199 T10061044 58007 FZRANO
KLGD 061956Z AUTO 20016G20KT 10SM CLR M01/M04 A3005 RMK AO2 SLP200 T10061044 FZRANO
KLGD 061856Z AUTO 19012KT 10SM CLR M01/M04 A3006 RMK AO2 SLP204 T10061044 FZRANO
KLGD 061756Z AUTO 20008KT 10SM CLR M01/M05 A3006 RMK AO2 SLP203 T10061050 10000 21044 51012 FZRANO
KLGD 061656Z AUTO 18012KT 10SM FEW045 M03/M06 A3005 RMK AO2 SLP201 T10281056 FZRANO
KLGD 061556Z AUTO 17007KT 10SM OVC045 M03/M05 A3005 RMK AO2 SLP201 T10331050 FZRANO
KLGD 061456Z AUTO 20013KT 10SM BKN045 M04/M06 A3002 RMK AO2 SLP193 T10391056 53007 FZRANO
KLGD 061356Z AUTO 19010KT 10SM CLR M04/M06 A3001 RMK AO2 SLP189 T10391056 FZRANO
KLGD 061256Z AUTO 17006KT 10SM CLR M03/M05 A3001 RMK AO2 SLP186 T10331050 FZRANO
KLGD 061156Z AUTO 21009KT 10SM OVC044 M03/M04 A3000 RMK AO2 SLP183 T10281044 10000 21028 50004 FZRANO
KLGD 061056Z AUTO 15003KT 10SM FEW039 OVC048 M02/M04 A3000 RMK AO2 SLP183 T10221039 FZRANO
KLGD 060956Z AUTO 18008KT 10SM SCT035 OVC050 M02/M04 A3000 RMK AO2 SLP184 T10221039 FZRANO
KLGD 060856Z AUTO 20011KT 10SM FEW055 M03/M04 A2999 RMK AO2 SLP177 T10281039 51005 FZRANO
KLGD 060756Z AUTO 20010KT 10SM BKN050 M02/M04 A2998 RMK AO2 SLP174 T10171039 400331017 FZRANO
KLGD 060656Z AUTO 21010KT 10SM OVC050 M01/M03 A2998 RMK AO2 SLP174 T10061033 FZRANO
KLGD 060556Z AUTO 19011KT 10SM OVC055 00/M03 A2997 RMK AO2 SLP169 T00001028 10017 21006 50005 FZRANO
KLGD 060456Z AUTO 00000KT 10SM OVC055 00/M03 A2997 RMK AO2 SLP169 T00001028 FZRANO
KLGD 060356Z AUTO 21011KT 10SM OVC049 00/M03 A2996 RMK AO2 SLP167 T00001028 FZRANO
KLGD 060256Z AUTO 05004KT 10SM OVC060 01/M03 A2995 RMK AO2 SLP163 T00061033 53003 FZRANO
KLGD 060156Z AUTO 22008KT 10SM BKN065 M01/M03 A2995 RMK AO2 SLP164 T10061028 FZRANO
KLGD 060056Z AUTO 17008KT 10SM BKN047 OVC065 01/M03 A2994 RMK AO2 SLP159 T00111033 FZRANO
KLGD 052356Z AUTO 15014G21KT 10SM BKN070 01/M03 A2994 RMK AO2 SLP162 T00061033 10033 20006 53000 FZRANO
KLGD 052256Z AUTO 17013KT 10SM OVC065 01/M03 A2993 RMK AO2 SLP158 T00111028 FZRANO
KLGD 052156Z AUTO 19014KT 10SM OVC060 01/M03 A2993 RMK AO2 SLP158 T00111028 FZRANO
KLGD 052056Z AUTO 19008KT 10SM OVC055 03/M03 A2994 RMK AO2 SLP158 T00281028 58014
KLGD 051956Z AUTO 18012KT 10SM OVC060 03/M03 A2996 RMK AO2 SLP164 T00281028